Time;durP1;ratioP1;P1;durP2;ratioP2;P2;SDS_P1;SDS_P2;PMS_P1;PMS_P2;Temp;Humidity;BMP_temperature;BMP_pressure;BME280_temperature;BME280_humidity;BME280_pressure;Samples;Min_cycle;Max_cycle;Signal;HPM_P1;HPM_P2
2023/01/25 00:08:21;;;;;;;24.60;13.80;;;;;;;-3.67;100.00;101452.67;104327;1304;545428;-68
2023/01/25 00:10:50;;;;;;;23.50;11.80;;;;;;;-3.54;100.00;101455.97;106527;1287;25505;-69
2023/01/25 00:13:19;;;;;;;19.20;11.80;;;;;;;-3.37;100.00;101460.23;106387;1288;25192;-69
2023/01/25 00:15:47;;;;;;;17.90;10.70;;;;;;;-3.21;100.00;101460.92;106749;1287;22781;-69
2023/01/25 00:18:15;;;;;;;16.70;10.20;;;;;;;-3.12;100.00;101460.03;106828;1282;22650;-69
2023/01/25 00:20:43;;;;;;;19.50;10.80;;;;;;;-3.05;100.00;101463.98;106756;1285;22747;-69
2023/01/25 00:23:12;;;;;;;17.00;10.60;;;;;;;-2.98;100.00;101464.98;106940;1279;177346;-69
2023/01/25 00:25:40;;;;;;;20.50;11.40;;;;;;;-2.93;100.00;101456.13;107108;1281;22549;-69
2023/01/25 00:28:08;;;;;;;16.50;10.10;;;;;;;-2.81;100.00;101452.87;106930;1286;23294;-69
2023/01/25 00:30:36;;;;;;;17.20;10.30;;;;;;;-2.71;100.00;101451.74;106752;1282;22804;-69
2023/01/25 00:33:16;;;;;;;18.40;10.70;;;;;;;-2.70;100.00;101448.44;106803;1282;25243;-69
2023/01/25 00:35:45;;;;;;;17.40;10.00;;;;;;;-2.68;100.00;101449.31;107125;1285;25373;-69
2023/01/25 00:38:35;;;;;;;16.90;10.20;;;;;;;-2.64;100.00;101446.27;106790;1279;25927;-69
2023/01/25 00:41:03;;;;;;;19.10;10.30;;;;;;;-2.56;100.00;101445.84;106878;1284;22563;-69
2023/01/25 00:43:33;;;;;;;18.70;10.20;;;;;;;-2.52;100.00;101442.24;106587;1263;22567;-69
2023/01/25 00:46:01;;;;;;;18.80;10.80;;;;;;;-2.53;100.00;101438.92;106725;1282;23711;-69
2023/01/25 00:48:30;;;;;;;14.70;9.90;;;;;;;-2.51;100.00;101432.73;107492;1277;25450;-69
2023/01/25 00:51:01;;;;;;;15.90;10.00;;;;;;;-2.52;100.00;101424.05;107626;1270;22522;-69
2023/01/25 00:53:29;;;;;;;16.70;10.50;;;;;;;-2.48;100.00;101426.79;107663;1275;22535;-70
2023/01/25 00:55:58;;;;;;;16.30;10.20;;;;;;;-2.39;100.00;101427.70;110194;1277;22425;-70
2023/01/25 00:58:27;;;;;;;15.50;9.70;;;;;;;-2.32;100.00;101427.00;110119;1278;22403;-70
2023/01/25 01:00:55;;;;;;;16.60;10.10;;;;;;;-2.25;100.00;101423.67;110190;1277;23111;-70
2023/01/25 01:03:24;;;;;;;15.70;9.90;;;;;;;-2.23;100.00;101418.83;110190;1277;23021;-70
2023/01/25 01:06:06;;;;;;;16.70;10.50;;;;;;;-2.24;100.00;101413.45;110313;1277;22238;-69
2023/01/25 01:08:35;;;;;;;18.80;10.40;;;;;;;-2.23;100.00;101411.23;110267;1277;23296;-69
2023/01/25 01:11:05;;;;;;;16.00;9.70;;;;;;;-2.23;100.00;101412.00;109994;1278;22934;-69
2023/01/25 01:13:34;;;;;;;16.30;9.60;;;;;;;-2.23;100.00;101414.00;110131;1273;22288;-69
2023/01/25 01:16:04;;;;;;;15.90;9.80;;;;;;;-2.17;100.00;101409.35;110046;1278;22911;-69
2023/01/25 01:18:33;;;;;;;14.20;8.70;;;;;;;-2.09;100.00;101409.23;109967;1277;22241;-69
2023/01/25 01:21:01;;;;;;;15.40;9.20;;;;;;;-2.05;100.00;101415.45;110276;1278;22228;-69
2023/01/25 01:23:30;;;;;;;16.20;9.60;;;;;;;-2.11;100.00;101418.33;110163;1277;22310;-69
2023/01/25 01:26:00;;;;;;;15.40;9.30;;;;;;;-2.17;100.00;101417.73;109991;1278;22406;-69
2023/01/25 01:28:29;;;;;;;16.60;10.70;;;;;;;-2.20;100.00;101416.21;110169;1277;22287;-69
2023/01/25 01:31:04;;;;;;;14.30;8.90;;;;;;;-2.22;100.00;101415.33;110282;1277;22222;-69
2023/01/25 01:33:36;;;;;;;15.90;9.10;;;;;;;-2.24;100.00;101414.66;110283;1278;22203;-69
2023/01/25 01:36:12;;;;;;;14.70;9.40;;;;;;;-2.23;100.00;101416.80;110034;1278;22208;-69
2023/01/25 01:38:41;;;;;;;15.80;9.50;;;;;;;-2.19;100.00;101413.14;110129;1278;22248;-69
2023/01/25 01:41:09;;;;;;;16.50;9.80;;;;;;;-2.16;100.00;101408.02;110185;1277;22414;-70
2023/01/25 01:43:38;;;;;;;14.60;9.00;;;;;;;-2.17;100.00;101408.61;110018;1277;22456;-70
2023/01/25 01:46:27;;;;;;;17.90;10.90;;;;;;;-2.20;100.00;101409.80;110118;1272;22509;-70
2023/01/25 01:49:02;;;;;;;13.40;8.70;;;;;;;-2.23;100.00;101403.49;110018;1275;22185;-70
2023/01/25 01:51:47;;;;;;;15.80;9.90;;;;;;;-2.26;100.00;101403.05;110038;1278;22848;-70
2023/01/25 01:54:39;;;;;;;16.00;9.90;;;;;;;-2.26;100.00;101395.26;110179;1278;23103;-70
2023/01/25 01:57:15;;;;;;;17.00;9.70;;;;;;;-2.24;100.00;101392.77;110076;1278;22999;-70
2023/01/25 01:59:49;;;;;;;16.50;10.30;;;;;;;-2.22;100.00;101389.77;109906;1279;22590;-70
2023/01/25 02:02:17;;;;;;;15.60;9.50;;;;;;;-2.25;100.00;101382.92;110171;1277;22274;-70
2023/01/25 02:04:46;;;;;;;14.20;9.40;;;;;;;-2.29;100.00;101379.44;110036;1276;22415;-70
2023/01/25 02:07:19;;;;;;;15.00;9.30;;;;;;;-2.34;100.00;101378.46;110046;1278;22200;-70
2023/01/25 02:09:49;;;;;;;14.50;8.80;;;;;;;-2.40;100.00;101378.34;110182;1277;22281;-69
2023/01/25 02:12:18;;;;;;;13.30;8.40;;;;;;;-2.38;100.00;101380.95;109993;1278;22174;-70
2023/01/25 02:14:50;;;;;;;15.20;8.80;;;;;;;-2.32;100.00;101376.02;109881;1272;23050;-70
2023/01/25 02:17:28;;;;;;;17.50;9.40;;;;;;;-2.30;100.00;101373.30;110212;1278;22338;-70
2023/01/25 02:20:39;;;;;;;15.70;9.40;;;;;;;-2.30;100.00;101371.20;107953;1276;23372;-70
2023/01/25 02:23:31;;;;;;;16.70;9.30;;;;;;;-2.33;100.00;101370.70;106852;1281;25772;-70
2023/01/25 02:26:01;;;;;;;15.20;9.00;;;;;;;-2.38;100.00;101373.18;106808;1284;23343;-70
2023/01/25 02:28:39;;;;;;;14.30;8.70;;;;;;;-2.42;100.00;101379.23;107274;1277;26512;-70
2023/01/25 02:31:07;;;;;;;17.70;9.20;;;;;;;-2.42;100.00;101379.31;108602;1276;22542;-70
2023/01/25 02:33:36;;;;;;;18.00;8.60;;;;;;;-2.41;100.00;101372.55;110163;1278;22196;-70
2023/01/25 02:36:07;;;;;;;12.80;8.70;;;;;;;-2.35;100.00;101368.77;110196;1278;22245;-72
2023/01/25 02:38:55;;;;;;;13.70;8.40;;;;;;;-2.30;100.00;101372.77;110100;1278;22316;-70
2023/01/25 02:41:32;;;;;;;12.60;8.20;;;;;;;-2.39;100.00;101369.22;110110;1278;23038;-70
2023/01/25 02:44:04;;;;;;;13.20;9.10;;;;;;;-2.45;100.00;101369.80;110015;1278;22321;-69
2023/01/25 02:46:34;;;;;;;12.30;7.90;;;;;;;-2.45;100.00;101363.22;109980;1278;22230;-70
2023/01/25 02:49:05;;;;;;;17.30;9.20;;;;;;;-2.44;100.00;101363.33;110062;1278;22389;-69
2023/01/25 02:51:36;;;;;;;12.90;8.00;;;;;;;-2.47;100.00;101365.48;110157;1278;22398;-69
2023/01/25 02:54:07;;;;;;;12.60;8.50;;;;;;;-2.44;100.00;101366.86;107784;1278;22556;-70
2023/01/25 02:56:35;;;;;;;15.80;8.70;;;;;;;-2.41;100.00;101369.54;107360;1277;22563;-69
2023/01/25 02:59:04;;;;;;;13.10;8.20;;;;;;;-2.41;100.00;101367.48;107641;1278;26519;-70
2023/01/25 03:01:35;;;;;;;12.50;8.50;;;;;;;-2.44;100.00;101367.70;107374;1276;23514;-69
2023/01/25 03:04:04;;;;;;;12.80;8.10;;;;;;;-2.49;100.00;101372.11;107622;1274;22531;-69
2023/01/25 03:06:33;;;;;;;14.30;8.20;;;;;;;-2.57;100.00;101367.89;107568;1275;25734;-69
2023/01/25 03:09:03;;;;;;;11.10;7.70;;;;;;;-2.55;100.00;101364.70;107577;1274;23293;-69
2023/01/25 03:11:31;;;;;;;12.90;7.60;;;;;;;-2.55;100.00;101366.64;107591;1275;23280;-69
2023/01/25 03:14:00;;;;;;;13.10;8.50;;;;;;;-2.61;100.00;101369.73;107477;1273;27623;-69
2023/01/25 03:16:29;;;;;;;16.30;8.10;;;;;;;-2.68;100.00;101369.70;107596;1274;22554;-69
2023/01/25 03:18:59;;;;;;;13.80;7.40;;;;;;;-2.75;100.00;101368.59;107752;1274;22590;-69
2023/01/25 03:21:28;;;;;;;16.00;8.00;;;;;;;-2.78;100.00;101365.81;107949;1270;24389;-69
2023/01/25 03:23:58;;;;;;;13.40;7.60;;;;;;;-2.73;100.00;101361.93;107696;1270;22841;-70
2023/01/25 03:26:30;;;;;;;16.50;9.20;;;;;;;-2.71;100.00;101364.85;107856;1275;22656;-69
2023/01/25 03:29:11;;;;;;;12.00;7.50;;;;;;;-2.70;100.00;101361.48;107755;1274;22601;-69
2023/01/25 03:31:41;;;;;;;15.00;8.30;;;;;;;-2.67;100.00;101360.02;107808;1274;22592;-69
2023/01/25 03:34:09;;;;;;;12.10;7.60;;;;;;;-2.64;100.00;101365.05;110401;1276;23543;-69
2023/01/25 03:36:40;;;;;;;15.70;8.80;;;;;;;-2.63;100.00;101365.29;110396;1275;22269;-69
2023/01/25 03:39:09;;;;;;;15.80;9.20;;;;;;;-2.62;100.00;101364.78;110377;1276;23325;-69
2023/01/25 03:41:40;;;;;;;16.80;8.50;;;;;;;-2.59;100.00;101361.30;110362;1270;22367;-69
2023/01/25 03:44:10;;;;;;;15.30;8.90;;;;;;;-2.54;100.00;101367.95;110440;1275;22248;-69
2023/01/25 03:46:39;;;;;;;16.80;9.00;;;;;;;-2.55;100.00;101371.03;110389;1270;22433;-69
2023/01/25 03:49:08;;;;;;;16.00;9.90;;;;;;;-2.57;100.00;101373.55;110406;1275;23173;-69
2023/01/25 03:51:37;;;;;;;15.50;9.60;;;;;;;-2.60;100.00;101372.64;110388;1267;23268;-69
2023/01/25 03:54:07;;;;;;;14.60;9.50;;;;;;;-2.65;100.00;101365.50;110369;1271;23031;-69
2023/01/25 03:56:36;;;;;;;16.30;9.00;;;;;;;-2.62;100.00;101365.55;110389;1274;22959;-70
2023/01/25 07:59:25;;;;;;;36.10;20.60;;;;;;;-4.14;100.00;101355.49;104247;1305;544998;-76
2023/01/25 08:01:54;;;;;;;33.10;20.10;;;;;;;-3.97;100.00;101368.38;106600;1281;24021;-77
2023/01/25 08:04:22;;;;;;;25.70;15.30;;;;;;;-3.79;100.00;101368.41;106696;1289;22578;-77
2023/01/25 08:06:51;;;;;;;20.90;12.90;;;;;;;-3.62;100.00;101365.52;106962;1280;22915;-76
2023/01/25 08:09:19;;;;;;;19.80;12.40;;;;;;;-3.48;100.00;101362.53;107536;1280;24162;-77
2023/01/25 08:11:48;;;;;;;19.40;12.60;;;;;;;-3.38;100.00;101358.77;106752;1285;22570;-77
2023/01/25 08:14:16;;;;;;;24.50;13.40;;;;;;;-3.28;100.00;101363.17;108967;1283;200231;-77
2023/01/25 08:16:45;;;;;;;23.50;12.10;;;;;;;-3.15;100.00;101362.48;107684;1280;23306;-77
2023/01/25 08:19:14;;;;;;;21.00;11.60;;;;;;;-3.01;100.00;101366.11;107832;1282;23726;-77
2023/01/25 08:21:42;;;;;;;19.80;12.10;;;;;;;-2.91;100.00;101360.33;107237;1280;22654;-77
2023/01/25 08:24:11;;;;;;;20.80;12.30;;;;;;;-2.85;100.00;101360.66;108135;1283;24224;-77
2023/01/25 08:26:40;;;;;;;22.80;12.90;;;;;;;-2.83;100.00;101367.59;107152;1284;22566;-76
2023/01/25 08:29:09;;;;;;;20.90;12.90;;;;;;;-2.80;100.00;101363.54;107862;1284;25467;-75
2023/01/25 08:31:39;;;;;;;22.50;13.50;;;;;;;-2.70;100.00;101368.94;109601;1284;25470;-77
2023/01/25 08:34:08;;;;;;;18.50;11.80;;;;;;;-2.58;100.00;101375.29;108894;1282;25441;-75
2023/01/25 08:36:36;;;;;;;17.20;11.10;;;;;;;-2.52;100.00;101372.02;108160;1283;23152;-75
2023/01/25 08:39:06;;;;;;;17.40;11.10;;;;;;;-2.52;100.00;101366.69;106976;1283;22579;-75
2023/01/25 08:41:34;;;;;;;17.80;12.30;;;;;;;-2.56;100.00;101363.02;107652;1283;22559;-76
2023/01/25 08:44:03;;;;;;;16.50;10.90;;;;;;;-2.57;100.00;101363.67;108116;1284;22576;-76
2023/01/25 08:46:32;;;;;;;18.50;13.00;;;;;;;-2.60;100.00;101363.96;108013;1284;25439;-77
2023/01/25 08:49:01;;;;;;;21.10;12.80;;;;;;;-2.62;100.00;101361.60;107761;1283;22690;-76
2023/01/25 08:51:30;;;;;;;20.40;12.40;;;;;;;-2.64;100.00;101359.85;106725;1260;22548;-75
2023/01/25 08:54:03;;;;;;;17.70;10.90;;;;;;;-2.69;100.00;101357.19;106963;1280;22543;-75
2023/01/25 08:56:32;;;;;;;23.60;13.40;;;;;;;-2.74;100.00;101357.49;109087;1274;22537;-75
2023/01/25 08:59:00;;;;;;;21.70;12.30;;;;;;;-2.74;100.00;101355.69;108012;1275;22567;-78
2023/01/25 09:01:29;;;;;;;17.80;11.90;;;;;;;-2.69;100.00;101357.02;108555;1275;22637;-75
2023/01/25 09:03:57;;;;;;;18.50;12.10;;;;;;;-2.60;100.00;101358.91;108602;1273;23234;-75
2023/01/25 09:06:29;;;;;;;20.70;12.10;;;;;;;-2.48;100.00;101360.42;107659;1275;23904;-77
2023/01/25 09:08:58;;;;;;;22.50;13.50;;;;;;;-2.36;100.00;101355.56;108326;1269;22520;-79
2023/01/25 09:11:27;;;;;;;20.10;12.50;;;;;;;-2.30;100.00;101356.90;108194;1271;23508;-79
2023/01/25 09:13:55;;;;;;;19.80;12.20;;;;;;;-2.29;100.00;101354.00;108126;1272;22660;-76
2023/01/25 09:16:27;;;;;;;19.10;12.80;;;;;;;-2.33;100.00;101355.13;107917;1274;22527;-76
2023/01/25 09:19:00;;;;;;;21.60;13.70;;;;;;;-2.39;100.00;101352.63;110450;1268;22310;-76
2023/01/25 09:21:29;;;;;;;18.80;11.90;;;;;;;-2.33;100.00;101350.66;110462;1275;22394;-77
2023/01/25 09:23:58;;;;;;;19.90;11.50;;;;;;;-2.25;100.00;101351.81;110317;1275;22226;-76
2023/01/25 09:26:37;;;;;;;18.70;12.00;;;;;;;-2.28;100.00;101345.02;110556;1275;22203;-77
2023/01/25 09:29:06;;;;;;;16.80;11.00;;;;;;;-2.29;100.00;101346.98;110368;1271;22230;-76
2023/01/25 09:31:38;;;;;;;16.60;10.30;;;;;;;-2.30;100.00;101343.89;110422;1274;22429;-75
2023/01/25 09:34:21;;;;;;;19.00;13.30;;;;;;;-2.34;100.00;101347.89;109737;1275;24313;-76
2023/01/25 09:36:49;;;;;;;19.40;12.80;;;;;;;-2.33;100.00;101345.10;107770;1275;23978;-76
2023/01/25 09:39:17;;;;;;;21.10;13.40;;;;;;;-2.29;100.00;101340.34;108312;1275;24225;-76
2023/01/25 09:42:12;;;;;;;24.30;14.60;;;;;;;-2.30;100.00;101337.06;108299;1275;24125;-76
2023/01/25 09:44:49;;;;;;;20.90;14.00;;;;;;;-2.31;100.00;101332.48;110433;1275;22185;-77
2023/01/25 09:47:42;;;;;;;24.10;15.30;;;;;;;-2.34;100.00;101327.85;110436;1275;22468;-77
2023/01/25 09:50:15;;;;;;;25.20;14.80;;;;;;;-2.28;100.00;101328.61;109006;1275;23185;-77
2023/01/25 09:52:46;;;;;;;19.60;12.10;;;;;;;-2.21;100.00;101327.55;108074;1275;22715;-77
2023/01/25 09:55:16;;;;;;;18.70;12.30;;;;;;;-2.16;100.00;101323.70;108262;1274;22951;-77
2023/01/25 09:57:44;;;;;;;21.40;13.10;;;;;;;-2.16;100.00;101321.17;108488;1275;25580;-77
2023/01/25 10:00:27;;;;;;;20.10;13.80;;;;;;;-2.18;100.00;101314.59;108239;1267;25377;-77
2023/01/25 10:03:11;;;;;;;21.50;15.00;;;;;;;-2.17;100.00;101311.92;108200;1276;23319;-77
2023/01/25 10:05:44;;;;;;;20.10;13.80;;;;;;;-2.16;100.00;101305.36;110229;1276;22910;-76
2023/01/25 10:08:19;;;;;;;23.60;14.20;;;;;;;-2.13;100.00;101303.32;110364;1276;22339;-77
2023/01/25 10:10:48;;;;;;;23.20;14.30;;;;;;;-2.05;100.00;101301.60;110417;1275;22229;-77
2023/01/25 10:13:18;;;;;;;28.10;15.00;;;;;;;-1.99;100.00;101300.62;110226;1275;22238;-77
2023/01/25 10:15:54;;;;;;;22.00;13.00;;;;;;;-1.98;100.00;101296.42;110304;1275;22228;-77
2023/01/25 10:18:32;;;;;;;23.20;15.40;;;;;;;-2.03;100.00;101292.62;110433;1275;22252;-77
2023/01/25 10:21:11;;;;;;;24.80;14.90;;;;;;;-2.05;100.00;101290.21;110393;1275;22310;-77
2023/01/25 10:23:59;;;;;;;25.10;15.70;;;;;;;-2.10;100.00;101288.35;110158;1275;22202;-77
2023/01/25 10:26:31;;;;;;;69.40;32.50;;;;;;;-2.11;100.00;101283.36;110396;1275;22881;-77
2023/01/25 10:29:18;;;;;;;50.80;25.10;;;;;;;-2.09;100.00;101275.61;110295;1275;22948;-77
2023/01/25 10:31:52;;;;;;;21.60;14.90;;;;;;;-2.10;100.00;101271.48;110318;1275;22299;-77
2023/01/25 10:34:30;;;;;;;28.30;16.10;;;;;;;-2.12;100.00;101267.24;110422;1275;22623;-78
2023/01/25 10:37:17;;;;;;;25.40;14.20;;;;;;;-2.15;100.00;101263.66;110393;1275;22487;-77
2023/01/25 10:39:54;;;;;;;21.00;14.30;;;;;;;-2.14;100.00;101258.69;110333;1272;22016;-77
2023/01/25 10:42:24;;;;;;;26.00;16.00;;;;;;;-2.02;100.00;101250.89;110401;1275;22331;-77
2023/01/25 10:44:52;;;;;;;22.10;14.80;;;;;;;-1.89;100.00;101245.66;110295;1276;22178;-77
2023/01/25 10:47:26;;;;;;;20.80;14.00;;;;;;;-1.77;100.00;101243.92;110392;1267;23012;-77
2023/01/25 10:49:58;;;;;;;23.20;14.10;;;;;;;-1.73;100.00;101240.14;109347;1275;22579;-76
2023/01/25 10:52:29;;;;;;;20.90;13.40;;;;;;;-1.75;100.00;101236.76;108205;1275;22592;-77
2023/01/25 10:55:07;;;;;;;20.20;14.30;;;;;;;-1.80;100.00;101239.42;110301;1275;22951;-77
2023/01/25 10:57:35;;;;;;;21.70;13.90;;;;;;;-1.84;100.00;101233.29;110341;1269;22357;-77
2023/01/25 11:00:09;;;;;;;22.60;14.60;;;;;;;-1.86;100.00;101231.50;110252;1276;22275;-76
2023/01/25 11:02:45;;;;;;;22.70;14.30;;;;;;;-1.80;100.00;101226.95;110370;1271;22416;-77
2023/01/25 11:05:17;;;;;;;20.80;14.00;;;;;;;-1.73;100.00;101222.86;110278;1276;22983;-77
2023/01/25 11:07:46;;;;;;;31.50;19.20;;;;;;;-1.67;100.00;101220.85;110379;1275;22357;-77
2023/01/25 11:10:32;;;;;;;280.70;164.20;;;;;;;-1.69;100.00;101216.59;109225;1276;25316;-77
2023/01/25 11:13:18;;;;;;;114.10;61.20;;;;;;;-1.73;100.00;101219.64;108058;1275;22617;-77
2023/01/25 11:16:00;;;;;;;28.50;17.60;;;;;;;-1.81;100.00;101213.52;108150;1275;22520;-77
2023/01/25 11:18:32;;;;;;;28.20;16.30;;;;;;;-1.87;100.00;101206.73;108202;1276;25375;-77
2023/01/25 11:21:13;;;;;;;55.50;29.00;;;;;;;-1.84;100.00;101203.24;108317;1276;22551;-77
2023/01/25 11:23:42;;;;;;;21.90;14.10;;;;;;;-1.79;100.00;101198.02;108363;1274;23252;-77
2023/01/25 11:26:15;;;;;;;66.30;33.10;;;;;;;-1.76;100.00;101198.14;108150;1269;25226;-77
2023/01/25 11:28:47;;;;;;;28.50;16.40;;;;;;;-1.76;100.00;101200.06;108018;1274;23112;-77
2023/01/25 11:31:19;;;;;;;19.80;13.90;;;;;;;-1.80;100.00;101193.31;110457;1275;22221;-77
2023/01/25 11:33:48;;;;;;;20.50;12.80;;;;;;;-1.82;100.00;101193.92;110346;1275;23140;-78
2023/01/25 11:36:58;;;;;;;22.60;14.00;;;;;;;-1.93;100.00;101190.78;110366;1275;22387;-77
2023/01/25 16:15:56;;;;;;;46.10;27.00;;;;;;;-4.20;100.00;101078.11;104413;1305;544962;-69
2023/01/25 16:18:24;;;;;;;48.60;28.40;;;;;;;-4.07;100.00;101088.17;107332;1279;25638;-69
2023/01/25 16:20:52;;;;;;;36.30;21.80;;;;;;;-3.89;100.00;101083.08;107189;1281;22573;-69
2023/01/25 16:23:21;;;;;;;33.40;20.40;;;;;;;-3.73;100.00;101076.27;109934;1281;22970;-69
2023/01/25 16:25:50;;;;;;;25.60;16.30;;;;;;;-3.57;100.00;101076.42;109930;1280;23195;-70
2023/01/25 16:28:18;;;;;;;30.60;15.90;;;;;;;-3.41;100.00;101079.67;109985;1281;22888;-70
2023/01/25 16:30:46;;;;;;;33.30;18.50;;;;;;;-3.27;100.00;101075.80;109680;1279;617918;-70
2023/01/25 16:33:15;;;;;;;30.10;18.20;;;;;;;-3.19;100.00;101077.65;110131;1279;22292;-70
2023/01/25 16:35:43;;;;;;;24.50;15.40;;;;;;;-3.11;100.00;101071.95;110122;1279;22295;-70
2023/01/25 16:38:11;;;;;;;23.00;12.90;;;;;;;-3.04;100.00;101076.70;110181;1279;22412;-70
2023/01/25 16:40:40;;;;;;;20.60;13.10;;;;;;;-2.92;100.00;101072.71;110155;1279;22805;-70
2023/01/25 16:43:08;;;;;;;20.60;12.30;;;;;;;-2.82;100.00;101068.83;110082;1279;23100;-71
2023/01/25 16:45:38;;;;;;;16.10;11.50;;;;;;;-2.77;100.00;101066.23;110093;1277;22864;-70
2023/01/25 16:48:07;;;;;;;19.90;11.60;;;;;;;-2.74;100.00;101061.82;110126;1279;22161;-70
2023/01/25 16:50:36;;;;;;;19.90;12.60;;;;;;;-2.70;100.00;101061.02;110010;1279;22171;-70
2023/01/25 16:53:04;;;;;;;21.00;12.60;;;;;;;-2.61;100.00;101062.27;110100;1279;24034;-70
2023/01/25 16:55:33;;;;;;;21.40;12.20;;;;;;;-2.52;100.00;101061.70;110081;1276;23157;-72
2023/01/25 16:58:02;;;;;;;19.50;11.40;;;;;;;-2.48;100.00;101067.83;109896;1276;22815;-71
2023/01/25 17:00:34;;;;;;;21.90;11.50;;;;;;;-2.48;100.00;101065.96;110021;1279;22285;-70
2023/01/25 17:03:03;;;;;;;20.20;11.90;;;;;;;-2.52;100.00;101062.52;110092;1278;22538;-70
2023/01/25 17:05:33;;;;;;;20.90;12.50;;;;;;;-2.53;100.00;101057.10;110113;1277;22293;-70
2023/01/25 17:08:01;;;;;;;18.00;12.90;;;;;;;-2.53;100.00;101057.86;110124;1277;22345;-69
2023/01/25 17:10:33;;;;;;;20.70;13.40;;;;;;;-2.48;100.00;101054.89;110244;1278;22278;-69
2023/01/25 17:13:02;;;;;;;19.80;13.20;;;;;;;-2.39;100.00;101055.36;110226;1276;22331;-68
2023/01/25 17:15:32;;;;;;;22.30;12.80;;;;;;;-2.33;100.00;101057.23;109383;1270;22525;-69
2023/01/25 17:18:01;;;;;;;19.60;12.90;;;;;;;-2.32;100.00;101055.40;107526;1276;25363;-69
2023/01/25 17:20:29;;;;;;;19.40;13.30;;;;;;;-2.36;100.00;101054.71;108194;1276;22657;-68
2023/01/25 17:22:57;;;;;;;19.80;13.20;;;;;;;-2.40;100.00;101051.88;107440;1277;22569;-68
2023/01/25 17:25:26;;;;;;;20.10;12.90;;;;;;;-2.41;100.00;101050.77;107554;1272;25342;-70
2023/01/25 17:27:56;;;;;;;19.00;12.10;;;;;;;-2.36;100.00;101049.73;107477;1277;24221;-69
2023/01/25 17:30:24;;;;;;;27.00;14.90;;;;;;;-2.33;100.00;101050.70;107395;1271;22744;-68
2023/01/25 17:32:52;;;;;;;22.30;13.00;;;;;;;-2.39;100.00;101049.15;107481;1275;26291;-69
2023/01/25 17:35:22;;;;;;;19.50;12.90;;;;;;;-2.48;100.00;101048.09;107487;1278;25211;-70
2023/01/25 17:37:53;;;;;;;57.50;24.20;;;;;;;-2.55;100.00;101046.34;107460;1276;22582;-72
2023/01/25 17:40:22;;;;;;;24.50;14.10;;;;;;;-2.60;100.00;101046.62;107464;1270;25511;-70
2023/01/25 17:42:50;;;;;;;35.10;16.90;;;;;;;-2.58;100.00;101046.13;107306;1273;25251;-70
2023/01/25 17:45:18;;;;;;;31.50;14.90;;;;;;;-2.55;100.00;101045.39;107505;1271;26873;-69
2023/01/25 17:47:47;;;;;;;24.60;15.80;;;;;;;-2.50;100.00;101040.52;107312;1270;25363;-70
2023/01/25 17:50:15;;;;;;;20.20;15.10;;;;;;;-2.52;100.00;101036.80;107417;1272;22529;-71
2023/01/25 17:52:44;;;;;;;24.00;14.70;;;;;;;-2.54;100.00;101037.83;107465;1278;25434;-71
2023/01/25 17:55:13;;;;;;;22.00;14.80;;;;;;;-2.55;100.00;101035.61;107424;1270;22579;-71
2023/01/25 17:57:42;;;;;;;20.50;13.90;;;;;;;-2.55;100.00;101037.59;107455;1278;25150;-71
2023/01/25 18:00:11;;;;;;;17.00;11.60;;;;;;;-2.49;100.00;101036.15;107497;1277;22695;-70
2023/01/25 18:02:43;;;;;;;19.30;12.60;;;;;;;-2.42;100.00;101036.87;109262;1276;24350;-70
2023/01/25 18:05:12;;;;;;;17.50;12.30;;;;;;;-2.44;100.00;101032.42;107422;1273;24378;-70
2023/01/25 18:07:43;;;;;;;20.20;12.70;;;;;;;-2.57;100.00;101031.27;107255;1273;26172;-71
2023/01/25 18:10:12;;;;;;;17.90;11.30;;;;;;;-2.67;100.00;101032.95;107286;1278;24352;-71
2023/01/25 18:12:41;;;;;;;19.90;12.00;;;;;;;-2.68;100.00;101034.48;107091;1273;22537;-71
2023/01/25 18:15:10;;;;;;;18.50;11.90;;;;;;;-2.69;100.00;101033.56;107346;1278;25369;-70
2023/01/25 18:17:39;;;;;;;22.20;12.60;;;;;;;-2.71;100.00;101034.46;107307;1278;22548;-70
2023/01/25 18:20:11;;;;;;;18.60;12.60;;;;;;;-2.73;100.00;101037.80;107185;1278;23129;-69
2023/01/25 18:22:40;;;;;;;17.40;12.50;;;;;;;-2.71;100.00;101034.25;107331;1278;24050;-69
2023/01/25 18:25:34;;;;;;;17.50;11.40;;;;;;;-2.69;100.00;101040.25;107260;1276;22652;-69
2023/01/25 18:28:04;;;;;;;21.30;13.10;;;;;;;-2.68;100.00;101033.95;107473;1278;22663;-70
2023/01/25 18:30:42;;;;;;;21.90;14.00;;;;;;;-2.70;100.00;101037.34;107577;1276;24527;-69
2023/01/25 18:33:11;;;;;;;17.50;12.30;;;;;;;-2.62;100.00;101035.34;107875;1273;25382;-70
2023/01/25 18:35:47;;;;;;;18.80;12.40;;;;;;;-2.61;100.00;101036.27;107477;1278;23373;-71
2023/01/25 18:38:16;;;;;;;18.40;12.00;;;;;;;-2.62;100.00;101039.36;108134;1277;22622;-70
2023/01/25 18:40:44;;;;;;;18.50;12.20;;;;;;;-2.62;100.00;101033.91;107303;1272;22640;-70
2023/01/25 18:43:15;;;;;;;25.30;14.30;;;;;;;-2.61;100.00;101033.74;107981;1270;22301;-70
2023/01/25 18:45:43;;;;;;;29.10;20.70;;;;;;;-2.59;100.00;101037.89;110252;1278;23087;-71
2023/01/25 18:48:12;;;;;;;29.60;19.90;;;;;;;-2.62;100.00;101039.75;110262;1278;22279;-71
2023/01/25 18:50:43;;;;;;;30.60;19.50;;;;;;;-2.59;100.00;101037.98;110231;1270;22362;-71
2023/01/25 18:53:11;;;;;;;26.10;16.80;;;;;;;-2.53;100.00;101036.70;110225;1269;22424;-71
2023/01/25 18:55:40;;;;;;;22.10;14.80;;;;;;;-2.52;100.00;101033.77;110279;1276;22924;-70
2023/01/25 18:58:11;;;;;;;21.70;14.40;;;;;;;-2.54;100.00;101035.69;110242;1278;22755;-70
2023/01/25 19:00:39;;;;;;;22.90;13.40;;;;;;;-2.56;100.00;101031.65;110197;1273;22457;-71
2023/01/25 19:03:07;;;;;;;22.00;13.30;;;;;;;-2.56;100.00;101029.55;110178;1270;22293;-71
2023/01/25 19:05:35;;;;;;;20.10;14.30;;;;;;;-2.57;100.00;101025.52;110221;1278;22383;-71
2023/01/25 19:08:05;;;;;;;20.90;13.30;;;;;;;-2.59;100.00;101027.33;110258;1277;22295;-71
2023/01/25 19:10:33;;;;;;;20.40;13.40;;;;;;;-2.59;100.00;101027.39;110018;1277;22823;-70
2023/01/25 19:13:02;;;;;;;24.10;15.00;;;;;;;-2.62;100.00;101027.46;109736;1270;25375;-70
2023/01/25 19:15:30;;;;;;;21.30;14.00;;;;;;;-2.58;100.00;101026.33;107359;1278;22586;-70
2023/01/25 19:17:59;;;;;;;23.10;15.10;;;;;;;-2.54;100.00;101026.30;107385;1273;26497;-69
2023/01/25 19:20:27;;;;;;;25.10;16.80;;;;;;;-2.53;100.00;101028.20;107395;1278;26474;-69
2023/01/25 19:22:55;;;;;;;22.50;14.50;;;;;;;-2.56;100.00;101024.38;107517;1278;22906;-70
2023/01/25 19:25:25;;;;;;;29.50;17.90;;;;;;;-2.57;100.00;101022.48;107704;1266;22570;-69
2023/01/25 19:27:54;;;;;;;31.70;18.10;;;;;;;-2.55;100.00;101020.92;107446;1272;25396;-70
2023/01/25 19:30:22;;;;;;;31.60;17.80;;;;;;;-2.53;100.00;101023.20;109182;1276;22220;-70
2023/01/25 19:32:52;;;;;;;22.60;15.30;;;;;;;-2.46;100.00;101019.27;110232;1276;23278;-70
2023/01/25 19:35:21;;;;;;;16.50;11.50;;;;;;;-2.39;100.00;101022.16;109959;1278;22985;-70
2023/01/25 19:37:49;;;;;;;17.50;11.80;;;;;;;-2.39;100.00;101024.13;110238;1276;22298;-70
2023/01/25 19:40:19;;;;;;;19.80;12.50;;;;;;;-2.47;100.00;101019.38;110233;1278;23021;-70
2023/01/25 19:42:47;;;;;;;20.00;12.70;;;;;;;-2.59;100.00;101015.63;110231;1271;22354;-70
2023/01/25 19:45:15;;;;;;;19.80;13.70;;;;;;;-2.67;100.00;101014.33;110220;1278;22227;-70
2023/01/25 19:47:43;;;;;;;19.40;13.30;;;;;;;-2.70;100.00;101012.81;110252;1277;23368;-70
2023/01/25 19:50:11;;;;;;;42.10;22.50;;;;;;;-2.61;100.00;101009.11;110263;1278;22283;-70
2023/01/25 19:52:40;;;;;;;21.40;13.40;;;;;;;-2.51;100.00;101008.75;110279;1278;22297;-70
2023/01/25 19:55:08;;;;;;;19.00;14.10;;;;;;;-2.46;100.00;101002.61;110239;1278;23002;-70
2023/01/25 22:48:54;;;;;;;52.10;28.90;;;;;;;-4.46;100.00;100918.99;104934;1304;545568;-71